Time;durP1;ratioP1;P1;durP2;ratioP2;P2;SDS_P1;SDS_P2;PMS_P1;PMS_P2;Temp;Humidity;BMP_temperature;BMP_pressure;BME280_temperature;BME280_humidity;BME280_pressure;Samples;Min_cycle;Max_cycle;Signal;HPM_P1;HPM_P2
2022/01/31 00:01:45;;;;;;;8.73;3.83;;;;;;;;;;5020716;28;20965;-72
2022/01/31 00:04:11;;;;;;;10.60;3.47;;;;;;;;;;5022926;28;20056;-72
2022/01/31 00:06:37;;;;;;;10.85;3.00;;;;;;;;;;5024578;28;20032;-70
2022/01/31 00:09:04;;;;;;;8.48;3.70;;;;;;;;;;5025550;28;20096;-69
2022/01/31 00:11:30;;;;;;;7.65;3.25;;;;;;;;;;5025326;28;20048;-69
2022/01/31 00:14:10;;;;;;;7.30;3.03;;;;;;;;;;5024162;28;20053;-70
2022/01/31 00:16:36;;;;;;;8.43;3.25;;;;;;;;;;5022638;28;20092;-70
2022/01/31 00:19:02;;;;;;;8.77;3.40;;;;;;;;;;5021816;28;20412;-69
2022/01/31 00:21:29;;;;;;;19.40;7.43;;;;;;;;;;5020690;28;20381;-71
2022/01/31 00:23:55;;;;;;;13.93;6.90;;;;;;;;;;5025215;28;20018;-70
2022/01/31 00:26:22;;;;;;;8.57;3.17;;;;;;;;;;5024811;28;20033;-69
2022/01/31 00:28:48;;;;;;;6.00;2.60;;;;;;;;;;5024282;28;20021;-69
2022/01/31 00:31:15;;;;;;;7.30;2.67;;;;;;;;;;5025007;28;20033;-69
2022/01/31 00:33:41;;;;;;;8.43;3.20;;;;;;;;;;5022876;28;20033;-69
2022/01/31 00:36:07;;;;;;;10.82;2.80;;;;;;;;;;5025925;28;20025;-69
2022/01/31 00:38:34;;;;;;;10.90;3.08;;;;;;;;;;5023867;28;20040;-70
2022/01/31 00:41:00;;;;;;;7.38;2.80;;;;;;;;;;5024844;28;20726;-70
2022/01/31 00:43:26;;;;;;;6.13;2.78;;;;;;;;;;5023873;28;20052;-70
2022/01/31 00:46:02;;;;;;;16.45;4.03;;;;;;;;;;5024162;28;20029;-69
2022/01/31 00:48:33;;;;;;;11.07;2.67;;;;;;;;;;5025171;28;20560;-69
2022/01/31 00:50:59;;;;;;;10.13;2.77;;;;;;;;;;5024834;28;20413;-69
2022/01/31 00:53:25;;;;;;;12.38;3.53;;;;;;;;;;5025003;28;20588;-69
2022/01/31 00:55:51;;;;;;;7.05;2.72;;;;;;;;;;5022968;28;20021;-71
2022/01/31 00:58:18;;;;;;;5.93;2.88;;;;;;;;;;5023771;28;20032;-69
2022/01/31 01:00:44;;;;;;;8.60;2.90;;;;;;;;;;5023908;28;20025;-69
2022/01/31 01:03:10;;;;;;;9.30;3.17;;;;;;;;;;5024160;28;20038;-70
2022/01/31 01:05:37;;;;;;;6.63;2.65;;;;;;;;;;5024771;28;20834;-70
2022/01/31 01:08:03;;;;;;;9.63;3.15;;;;;;;;;;5024431;28;20466;-69
2022/01/31 01:10:29;;;;;;;6.15;2.45;;;;;;;;;;5027445;28;20025;-70
2022/01/31 01:12:55;;;;;;;9.27;3.10;;;;;;;;;;5025339;28;20021;-69
2022/01/31 01:15:22;;;;;;;5.93;2.78;;;;;;;;;;5027122;28;20026;-70
2022/01/31 01:17:48;;;;;;;11.68;3.30;;;;;;;;;;5028800;28;20025;-70
2022/01/31 01:20:15;;;;;;;6.63;2.38;;;;;;;;;;5027555;28;20033;-71
2022/01/31 01:22:41;;;;;;;8.77;2.97;;;;;;;;;;5022927;28;20496;-71
2022/01/31 01:25:08;;;;;;;10.63;3.00;;;;;;;;;;5027822;28;20022;-71
2022/01/31 01:27:35;;;;;;;11.90;3.33;;;;;;;;;;5027499;28;20040;-71
2022/01/31 01:30:01;;;;;;;16.45;4.20;;;;;;;;;;5027624;28;20465;-71
2022/01/31 01:32:31;;;;;;;14.80;3.85;;;;;;;;;;5025863;28;20120;-71
2022/01/31 01:35:02;;;;;;;7.95;3.30;;;;;;;;;;5027945;28;20436;-71
2022/01/31 01:37:28;;;;;;;14.10;3.40;;;;;;;;;;5027186;28;20493;-70
2022/01/31 01:39:55;;;;;;;10.48;3.15;;;;;;;;;;5027518;28;20017;-74
2022/01/31 01:42:21;;;;;;;14.57;3.42;;;;;;;;;;5027000;28;20037;-75
2022/01/31 01:44:51;;;;;;;14.13;3.28;;;;;;;;;;5024946;28;20067;-74
2022/01/31 01:47:26;;;;;;;18.90;3.72;;;;;;;;;;5027729;28;20124;-74
2022/01/31 01:49:53;;;;;;;11.23;2.92;;;;;;;;;;5027202;28;20095;-70
2022/01/31 01:52:19;;;;;;;8.25;2.25;;;;;;;;;;5026943;28;20039;-70
2022/01/31 01:54:46;;;;;;;9.18;2.88;;;;;;;;;;5027662;28;20029;-70
2022/01/31 01:57:13;;;;;;;7.78;2.35;;;;;;;;;;5027615;28;20032;-70
2022/01/31 01:59:40;;;;;;;8.43;3.00;;;;;;;;;;5026719;28;20612;-70
2022/01/31 02:02:07;;;;;;;8.77;2.72;;;;;;;;;;5025893;28;20064;-70
2022/01/31 02:04:33;;;;;;;11.18;2.90;;;;;;;;;;5027870;28;20492;-70
2022/01/31 02:07:00;;;;;;;6.25;2.67;;;;;;;;;;5027275;28;20026;-70
2022/01/31 02:09:29;;;;;;;6.43;2.33;;;;;;;;;;5027462;28;20069;-70
2022/01/31 02:11:55;;;;;;;10.60;2.75;;;;;;;;;;5027629;28;20056;-70
2022/01/31 02:14:24;;;;;;;7.22;2.42;;;;;;;;;;5025172;28;20076;-70
2022/01/31 02:16:51;;;;;;;10.98;2.70;;;;;;;;;;5027512;28;20169;-70
2022/01/31 02:19:18;;;;;;;9.98;2.30;;;;;;;;;;5027061;28;20052;-70
2022/01/31 02:21:45;;;;;;;9.38;2.05;;;;;;;;;;5027397;28;20040;-70
2022/01/31 02:24:11;;;;;;;9.32;2.40;;;;;;;;;;5026922;28;20025;-70
2022/01/31 02:26:37;;;;;;;6.55;2.08;;;;;;;;;;5027407;28;20053;-70
2022/01/31 02:29:05;;;;;;;10.77;2.88;;;;;;;;;;5025803;28;20033;-71
2022/01/31 02:31:31;;;;;;;7.75;2.30;;;;;;;;;;5026685;28;20099;-71
2022/01/31 02:33:57;;;;;;;5.78;2.13;;;;;;;;;;5027408;28;20017;-70
2022/01/31 02:36:23;;;;;;;4.65;1.90;;;;;;;;;;5026895;28;20037;-70
2022/01/31 02:38:49;;;;;;;9.65;2.00;;;;;;;;;;5017936;28;20033;-70
2022/01/31 02:41:16;;;;;;;11.40;2.10;;;;;;;;;;5026921;28;20052;-71
2022/01/31 02:43:48;;;;;;;11.63;2.80;;;;;;;;;;5026892;28;20029;-71
2022/01/31 02:46:14;;;;;;;7.38;2.33;;;;;;;;;;5026991;28;20416;-71
2022/01/31 02:48:41;;;;;;;5.85;2.75;;;;;;;;;;5026207;28;20108;-71
2022/01/31 02:51:10;;;;;;;9.10;2.70;;;;;;;;;;5027067;28;20035;-71
2022/01/31 02:53:41;;;;;;;13.68;2.58;;;;;;;;;;5024313;28;20104;-71
2022/01/31 02:56:07;;;;;;;8.60;2.28;;;;;;;;;;5018863;28;20472;-71
2022/01/31 02:58:33;;;;;;;4.63;1.88;;;;;;;;;;5026980;28;20061;-71
2022/01/31 03:01:00;;;;;;;8.68;2.38;;;;;;;;;;5026258;28;20021;-71
2022/01/31 03:03:27;;;;;;;6.10;1.80;;;;;;;;;;5026876;28;20569;-71
2022/01/31 03:05:53;;;;;;;7.38;2.22;;;;;;;;;;5025106;28;20512;-71
2022/01/31 03:08:20;;;;;;;10.60;2.83;;;;;;;;;;5016069;28;20029;-71
2022/01/31 03:10:47;;;;;;;11.32;2.85;;;;;;;;;;5017956;28;20056;-71
2022/01/31 03:13:13;;;;;;;16.08;2.65;;;;;;;;;;5021501;28;20040;-72
2022/01/31 03:15:39;;;;;;;8.93;2.70;;;;;;;;;;5021862;28;20056;-72
2022/01/31 03:18:06;;;;;;;9.85;2.13;;;;;;;;;;5021387;28;20086;-72
2022/01/31 03:20:32;;;;;;;6.35;2.42;;;;;;;;;;5012916;28;20789;-72
2022/01/31 03:22:59;;;;;;;14.73;2.63;;;;;;;;;;5022263;28;20027;-71
2022/01/31 03:25:25;;;;;;;10.10;3.15;;;;;;;;;;5021439;28;20029;-72
2022/01/31 03:27:51;;;;;;;11.15;2.70;;;;;;;;;;5021656;28;20429;-71
2022/01/31 03:30:19;;;;;;;8.23;3.17;;;;;;;;;;5019415;28;20676;-72
2022/01/31 03:32:45;;;;;;;8.18;2.72;;;;;;;;;;5019656;28;20029;-72
2022/01/31 03:35:12;;;;;;;9.35;2.92;;;;;;;;;;5021826;28;20037;-72
2022/01/31 03:37:38;;;;;;;14.55;3.22;;;;;;;;;;5021251;28;20041;-72
2022/01/31 03:40:05;;;;;;;10.13;3.58;;;;;;;;;;5022081;28;20031;-71
2022/01/31 03:42:32;;;;;;;12.45;4.18;;;;;;;;;;5018372;28;20045;-71
2022/01/31 03:44:58;;;;;;;11.35;4.55;;;;;;;;;;5021153;28;20040;-71
2022/01/31 03:47:24;;;;;;;9.88;4.15;;;;;;;;;;5021205;28;20045;-71
2022/01/31 03:49:51;;;;;;;9.93;3.97;;;;;;;;;;5020741;28;20037;-71
2022/01/31 03:52:17;;;;;;;16.40;5.25;;;;;;;;;;5021420;28;20388;-71
2022/01/31 03:54:44;;;;;;;10.57;4.72;;;;;;;;;;5020645;28;20126;-71
2022/01/31 03:57:10;;;;;;;10.50;4.25;;;;;;;;;;5019512;28;20025;-72
2022/01/31 03:59:36;;;;;;;10.60;5.70;;;;;;;;;;5021450;28;20029;-71
2022/01/31 04:02:05;;;;;;;11.90;5.80;;;;;;;;;;5018946;28;20026;-71
2022/01/31 04:04:31;;;;;;;16.15;6.22;;;;;;;;;;5019115;28;20456;-71
2022/01/31 04:06:57;;;;;;;13.82;5.90;;;;;;;;;;5017105;28;20037;-72
2022/01/31 04:09:23;;;;;;;14.45;6.85;;;;;;;;;;5018703;28;20071;-72
2022/01/31 04:11:49;;;;;;;13.40;6.80;;;;;;;;;;5017033;28;20689;-71
2022/01/31 04:14:15;;;;;;;15.02;6.43;;;;;;;;;;5017951;28;20052;-72
2022/01/31 04:16:42;;;;;;;12.70;6.50;;;;;;;;;;5018387;28;20761;-71
2022/01/31 04:19:08;;;;;;;15.52;6.75;;;;;;;;;;5018223;28;20117;-71
2022/01/31 04:21:34;;;;;;;18.42;7.07;;;;;;;;;;5018044;28;20869;-71
2022/01/31 04:24:00;;;;;;;14.00;6.22;;;;;;;;;;5017558;28;20029;-71
2022/01/31 04:26:33;;;;;;;13.93;5.60;;;;;;;;;;5018027;28;20037;-71
2022/01/31 04:29:07;;;;;;;10.35;5.03;;;;;;;;;;5016735;28;20017;-71
2022/01/31 04:31:44;;;;;;;15.63;5.20;;;;;;;;;;5018386;28;20087;-71
2022/01/31 04:34:10;;;;;;;13.00;6.65;;;;;;;;;;5016806;28;20481;-71
2022/01/31 04:36:37;;;;;;;15.98;5.40;;;;;;;;;;5018111;28;20033;-72
2022/01/31 04:39:04;;;;;;;12.30;5.78;;;;;;;;;;5018606;28;20026;-71
2022/01/31 04:41:30;;;;;;;32.78;6.68;;;;;;;;;;5016397;28;20504;-71
2022/01/31 04:44:02;;;;;;;13.10;5.55;;;;;;;;;;5017069;28;20022;-71
2022/01/31 04:46:29;;;;;;;9.68;4.50;;;;;;;;;;5022150;28;20125;-71
2022/01/31 04:48:56;;;;;;;7.22;4.00;;;;;;;;;;5022364;28;20061;-71
2022/01/31 04:51:22;;;;;;;9.95;4.10;;;;;;;;;;5021774;28;20037;-71
2022/01/31 04:53:48;;;;;;;7.47;3.00;;;;;;;;;;5020396;28;20041;-71
2022/01/31 04:56:14;;;;;;;10.80;3.22;;;;;;;;;;5021679;28;20067;-71
2022/01/31 04:58:40;;;;;;;8.98;3.30;;;;;;;;;;5022070;28;20095;-71
2022/01/31 05:01:07;;;;;;;12.27;3.40;;;;;;;;;;5021972;28;20033;-71
2022/01/31 05:03:34;;;;;;;11.02;3.15;;;;;;;;;;5021032;28;20076;-71
2022/01/31 05:06:00;;;;;;;12.00;3.28;;;;;;;;;;5021432;28;20477;-71
2022/01/31 05:08:28;;;;;;;8.07;3.40;;;;;;;;;;5021329;28;20044;-71
2022/01/31 05:10:55;;;;;;;11.55;3.97;;;;;;;;;;5020416;28;20033;-72
2022/01/31 05:13:21;;;;;;;8.75;3.15;;;;;;;;;;5022409;28;20056;-71
2022/01/31 05:15:47;;;;;;;8.27;3.10;;;;;;;;;;5021355;28;20114;-71
2022/01/31 05:18:14;;;;;;;8.27;2.60;;;;;;;;;;5021489;28;20037;-71
2022/01/31 05:20:41;;;;;;;7.68;2.80;;;;;;;;;;5021272;28;20029;-71
2022/01/31 05:23:08;;;;;;;10.50;3.65;;;;;;;;;;5019481;28;20038;-71
2022/01/31 05:25:35;;;;;;;11.10;3.92;;;;;;;;;;5014116;28;20026;-71
2022/01/31 05:28:01;;;;;;;10.85;3.38;;;;;;;;;;5021678;28;20033;-71
2022/01/31 05:30:28;;;;;;;15.68;3.70;;;;;;;;;;5018763;28;20056;-72
2022/01/31 05:32:54;;;;;;;9.75;3.30;;;;;;;;;;5019577;28;20457;-71
2022/01/31 05:35:20;;;;;;;10.40;3.45;;;;;;;;;;5020958;28;20057;-71
2022/01/31 05:37:46;;;;;;;9.73;3.03;;;;;;;;;;5013319;28;20101;-72
2022/01/31 05:40:13;;;;;;;11.90;3.20;;;;;;;;;;5022071;28;20036;-71
2022/01/31 05:42:39;;;;;;;6.43;3.47;;;;;;;;;;5021315;28;20068;-71
2022/01/31 05:45:09;;;;;;;10.65;4.00;;;;;;;;;;5019867;28;20018;-71
2022/01/31 05:47:36;;;;;;;10.68;4.15;;;;;;;;;;5020261;28;20083;-71
2022/01/31 05:50:02;;;;;;;11.60;4.07;;;;;;;;;;5021268;28;20104;-71
2022/01/31 05:52:29;;;;;;;13.15;4.35;;;;;;;;;;5021198;28;20029;-71
2022/01/31 05:54:55;;;;;;;14.77;4.00;;;;;;;;;;5019104;28;20041;-71
2022/01/31 05:57:21;;;;;;;12.85;3.60;;;;;;;;;;5020631;28;20030;-71
2022/01/31 05:59:47;;;;;;;15.65;4.50;;;;;;;;;;5020320;28;20362;-71
2022/01/31 06:02:13;;;;;;;16.73;5.05;;;;;;;;;;5020454;28;20493;-71
2022/01/31 06:04:40;;;;;;;15.02;4.45;;;;;;;;;;5020756;28;20030;-71
2022/01/31 06:07:06;;;;;;;12.20;4.45;;;;;;;;;;5020267;28;20037;-71
2022/01/31 06:09:32;;;;;;;12.30;4.07;;;;;;;;;;5019142;28;20021;-71
2022/01/31 06:12:02;;;;;;;12.15;4.30;;;;;;;;;;5019095;28;20041;-71
2022/01/31 06:14:28;;;;;;;14.10;5.28;;;;;;;;;;5020826;28;20017;-71
2022/01/31 06:16:54;;;;;;;11.60;4.45;;;;;;;;;;5019837;28;20041;-71
2022/01/31 06:19:20;;;;;;;15.10;4.55;;;;;;;;;;5020015;28;20108;-71
2022/01/31 06:21:46;;;;;;;10.82;4.72;;;;;;;;;;5020441;28;20045;-71
2022/01/31 06:24:14;;;;;;;10.40;4.40;;;;;;;;;;5018204;28;20033;-71
2022/01/31 06:26:41;;;;;;;12.15;4.20;;;;;;;;;;5020618;28;20105;-72
2022/01/31 06:29:07;;;;;;;13.23;4.40;;;;;;;;;;5018801;28;20017;-71
2022/01/31 06:31:33;;;;;;;11.57;4.70;;;;;;;;;;5019929;28;20032;-72
2022/01/31 06:34:00;;;;;;;17.02;4.82;;;;;;;;;;5019883;28;20536;-71
2022/01/31 06:36:26;;;;;;;12.82;4.45;;;;;;;;;;5019698;28;20574;-71
2022/01/31 06:38:53;;;;;;;12.15;5.10;;;;;;;;;;5018846;28;20092;-71
2022/01/31 06:41:19;;;;;;;16.40;4.93;;;;;;;;;;5020105;28;20038;-71
2022/01/31 06:43:46;;;;;;;9.55;4.63;;;;;;;;;;5019408;28;20497;-71
2022/01/31 06:46:13;;;;;;;17.23;5.40;;;;;;;;;;5018477;28;20021;-71
2022/01/31 06:48:39;;;;;;;12.95;5.05;;;;;;;;;;5019374;28;20104;-69
2022/01/31 06:51:05;;;;;;;9.60;5.20;;;;;;;;;;5019635;28;20026;-70
2022/01/31 06:53:31;;;;;;;19.35;5.30;;;;;;;;;;5019996;28;20030;-72
2022/01/31 06:55:58;;;;;;;8.80;4.30;;;;;;;;;;5018939;28;20033;-71
2022/01/31 06:58:24;;;;;;;12.63;4.20;;;;;;;;;;5022082;28;20041;-71
2022/01/31 07:00:51;;;;;;;10.95;4.35;;;;;;;;;;5021676;28;20033;-70
2022/01/31 07:03:17;;;;;;;12.05;4.60;;;;;;;;;;5021727;28;20095;-68
2022/01/31 07:05:44;;;;;;;11.60;4.95;;;;;;;;;;5020287;28;20676;-70
2022/01/31 07:08:11;;;;;;;16.98;5.00;;;;;;;;;;5019978;28;20041;-70
2022/01/31 07:10:38;;;;;;;11.77;4.60;;;;;;;;;;5021505;28;20025;-70
2022/01/31 07:13:23;;;;;;;12.90;4.10;;;;;;;;;;5020937;28;20029;-70
2022/01/31 07:15:49;;;;;;;9.55;4.03;;;;;;;;;;5019646;28;20042;-70
2022/01/31 07:18:15;;;;;;;13.00;4.50;;;;;;;;;;5020809;28;20033;-71
2022/01/31 07:20:43;;;;;;;13.40;3.83;;;;;;;;;;5021221;28;20056;-70
2022/01/31 07:23:17;;;;;;;8.38;3.55;;;;;;;;;;5020861;28;20759;-70
2022/01/31 07:25:43;;;;;;;15.82;4.25;;;;;;;;;;5020232;28;20025;-69
2022/01/31 07:28:10;;;;;;;10.88;3.60;;;;;;;;;;5021123;28;20087;-69
2022/01/31 07:30:38;;;;;;;14.45;4.00;;;;;;;;;;5020249;28;20467;-69
2022/01/31 07:33:04;;;;;;;11.05;3.70;;;;;;;;;;5021093;28;20086;-70
2022/01/31 07:35:30;;;;;;;7.50;3.75;;;;;;;;;;5020863;28;20440;-69
2022/01/31 07:37:57;;;;;;;8.55;3.30;;;;;;;;;;5020444;28;20083;-69
2022/01/31 07:40:23;;;;;;;11.07;3.95;;;;;;;;;;5019504;28;20393;-71
2022/01/31 07:42:49;;;;;;;11.00;3.78;;;;;;;;;;5020887;28;20130;-68
2022/01/31 07:45:15;;;;;;;7.80;3.38;;;;;;;;;;5020619;28;20061;-68
2022/01/31 07:47:41;;;;;;;11.10;4.30;;;;;;;;;;5020072;28;20079;-68
2022/01/31 07:50:08;;;;;;;8.60;3.28;;;;;;;;;;5021081;28;20022;-68
2022/01/31 07:52:34;;;;;;;12.52;3.67;;;;;;;;;;5019371;28;20025;-68
2022/01/31 07:55:01;;;;;;;10.80;2.88;;;;;;;;;;5020491;28;20108;-68
2022/01/31 07:57:27;;;;;;;10.45;3.25;;;;;;;;;;5020862;28;20636;-68
2022/01/31 07:59:53;;;;;;;12.15;3.80;;;;;;;;;;5020411;28;20084;-68
2022/01/31 08:02:20;;;;;;;13.77;4.00;;;;;;;;;;5016564;28;20069;-68
2022/01/31 08:04:46;;;;;;;13.85;3.88;;;;;;;;;;5015359;28;20040;-65
2022/01/31 08:07:12;;;;;;;13.10;4.30;;;;;;;;;;5020074;28;20068;-68
2022/01/31 08:09:39;;;;;;;10.82;3.67;;;;;;;;;;5020909;28;20103;-68
2022/01/31 08:12:05;;;;;;;16.02;4.65;;;;;;;;;;5020437;28;20075;-68
2022/01/31 08:14:32;;;;;;;11.15;3.60;;;;;;;;;;5019111;28;20104;-68
2022/01/31 08:16:58;;;;;;;10.88;3.42;;;;;;;;;;5020321;28;20037;-68
2022/01/31 08:19:25;;;;;;;10.43;4.20;;;;;;;;;;5022706;28;20056;-68
2022/01/31 08:21:52;;;;;;;10.93;3.30;;;;;;;;;;5024460;28;20752;-68
2022/01/31 08:24:18;;;;;;;15.60;3.78;;;;;;;;;;5024712;28;20033;-68
2022/01/31 08:26:44;;;;;;;10.00;3.55;;;;;;;;;;5024100;28;20463;-68
2022/01/31 08:29:43;;;;;;;19.95;3.63;;;;;;;;;;5023135;28;20505;-67
2022/01/31 08:32:06;;;;;;;;;;;;;;;;;;5015064;28;20033;-68
2022/01/31 08:37:17;;;;;;;10.60;3.85;;;;;;;;;;5022610;28;20099;-68
2022/01/31 08:39:43;;;;;;;8.52;3.60;;;;;;;;;;5022254;28;20056;-68
2022/01/31 08:42:09;;;;;;;10.25;3.85;;;;;;;;;;5021996;28;20485;-68
2022/01/31 08:44:36;;;;;;;14.90;5.28;;;;;;;;;;5020749;28;20676;-68
2022/01/31 08:47:02;;;;;;;9.13;3.58;;;;;;;;;;5022647;28;20651;-68
2022/01/31 08:49:30;;;;;;;14.65;3.60;;;;;;;;;;5022160;28;20084;-68
2022/01/31 08:51:56;;;;;;;13.20;4.07;;;;;;;;;;5021539;28;20477;-68
2022/01/31 08:54:22;;;;;;;11.88;3.30;;;;;;;;;;5022424;28;20025;-68
2022/01/31 08:56:49;;;;;;;9.10;3.40;;;;;;;;;;5019927;28;20041;-68
2022/01/31 08:59:18;;;;;;;10.73;3.20;;;;;;;;;;5021878;28;20056;-68
2022/01/31 09:01:52;;;;;;;18.75;4.45;;;;;;;;;;5022116;28;20124;-68
2022/01/31 09:04:32;;;;;;;13.15;3.58;;;;;;;;;;5014403;28;20039;-68
2022/01/31 09:06:58;;;;;;;15.27;3.70;;;;;;;;;;5018145;28;20091;-68
2022/01/31 09:09:25;;;;;;;15.68;3.65;;;;;;;;;;5023589;28;20029;-68
2022/01/31 09:11:51;;;;;;;12.88;3.72;;;;;;;;;;5020085;28;20030;-68
2022/01/31 09:14:17;;;;;;;7.40;3.03;;;;;;;;;;5024649;28;20420;-68
2022/01/31 09:16:43;;;;;;;12.20;4.22;;;;;;;;;;5023441;28;20127;-68
2022/01/31 09:19:10;;;;;;;17.90;3.83;;;;;;;;;;5023403;28;20118;-68
2022/01/31 09:21:36;;;;;;;11.88;3.85;;;;;;;;;;5022276;28;20036;-68
2022/01/31 09:24:03;;;;;;;9.13;3.33;;;;;;;;;;5023078;28;20026;-68
2022/01/31 09:26:29;;;;;;;8.82;2.90;;;;;;;;;;5023280;28;20087;-68
2022/01/31 09:28:55;;;;;;;8.93;2.78;;;;;;;;;;5018423;28;20321;-69
2022/01/31 09:31:22;;;;;;;10.75;3.13;;;;;;;;;;5014192;28;20026;-66
2022/01/31 09:33:49;;;;;;;11.55;4.10;;;;;;;;;;5019156;28;20088;-70
2022/01/31 09:36:16;;;;;;;11.30;4.30;;;;;;;;;;5022609;28;20030;-67
2022/01/31 09:38:42;;;;;;;8.63;3.63;;;;;;;;;;5022664;28;20115;-65
2022/01/31 09:41:11;;;;;;;18.38;3.80;;;;;;;;;;5023363;28;20025;-68
2022/01/31 09:48:51;;;;;;;14.77;4.20;;;;;;;;;;5022964;28;20033;-65
2022/01/31 09:51:17;;;;;;;11.20;4.57;;;;;;;;;;5021766;28;20116;-65
2022/01/31 09:53:48;;;;;;;13.13;4.28;;;;;;;;;;5022792;28;20317;-67
2022/01/31 09:56:16;;;;;;;10.23;3.58;;;;;;;;;;5022894;28;20069;-66
2022/01/31 09:58:43;;;;;;;7.50;3.30;;;;;;;;;;5023230;28;20033;-67
2022/01/31 10:01:11;;;;;;;6.55;2.85;;;;;;;;;;5022368;28;20033;-67
2022/01/31 10:03:48;;;;;;;5.47;2.83;;;;;;;;;;5021500;28;20057;-68
2022/01/31 10:06:23;;;;;;;8.45;2.70;;;;;;;;;;5022484;28;20548;-73
2022/01/31 10:09:11;;;;;;;9.60;4.68;;;;;;;;;;5022905;28;20041;-68
2022/01/31 10:11:51;;;;;;;8.10;3.83;;;;;;;;;;5017153;28;20596;-68
2022/01/31 10:17:05;;;;;;;9.07;5.15;;;;;;;;;;5021089;28;20597;-70
2022/01/31 10:19:38;;;;;;;11.30;3.92;;;;;;;;;;5015274;28;20028;-69
2022/01/31 10:22:05;;;;;;;11.75;3.78;;;;;;;;;;5022286;28;20114;-68
2022/01/31 10:24:32;;;;;;;9.88;3.10;;;;;;;;;;5021811;28;20057;-68
2022/01/31 10:27:07;;;;;;;8.45;2.80;;;;;;;;;;5021231;28;20388;-68
2022/01/31 10:29:33;;;;;;;8.75;2.90;;;;;;;;;;5022032;28;20092;-68
2022/01/31 10:32:04;;;;;;;7.78;3.10;;;;;;;;;;5021907;28;20026;-71
2022/01/31 10:34:31;;;;;;;5.03;2.55;;;;;;;;;;5009895;28;20204;-72
2022/01/31 10:37:05;;;;;;;8.68;3.13;;;;;;;;;;5021272;28;20041;-68
2022/01/31 10:45:24;;;;;;;14.50;5.28;;;;;;;;;;5012239;28;20151;-69
2022/01/31 10:53:07;;;;;;;9.82;3.53;;;;;;;;;;5020862;28;20033;-67
2022/01/31 10:55:33;;;;;;;10.93;3.60;;;;;;;;;;5020969;28;20029;-68
2022/01/31 10:58:06;;;;;;;10.30;3.30;;;;;;;;;;5021240;28;20034;-69
2022/01/31 11:00:37;;;;;;;7.65;2.47;;;;;;;;;;5019355;28;20087;-67
2022/01/31 11:03:23;;;;;;;8.18;2.90;;;;;;;;;;5021015;28;20064;-66
2022/01/31 11:05:50;;;;;;;13.43;4.13;;;;;;;;;;5006723;28;20478;-68
2022/01/31 11:08:17;;;;;;;8.63;4.07;;;;;;;;;;5018421;28;20485;-66
2022/01/31 11:10:43;;;;;;;14.80;3.83;;;;;;;;;;5019340;28;20105;-67
2022/01/31 11:13:10;;;;;;;6.82;3.75;;;;;;;;;;5019013;28;20079;-66
2022/01/31 11:15:39;;;;;;;8.10;3.58;;;;;;;;;;5020071;28;20042;-67
2022/01/31 11:18:06;;;;;;;15.77;4.55;;;;;;;;;;5021090;28;20105;-69
2022/01/31 11:20:33;;;;;;;14.43;3.85;;;;;;;;;;5020727;28;20037;-69
2022/01/31 11:23:01;;;;;;;7.93;3.33;;;;;;;;;;5018416;28;20057;-70
2022/01/31 11:25:28;;;;;;;14.55;4.07;;;;;;;;;;5019130;28;20036;-66
2022/01/31 11:27:58;;;;;;;8.68;3.03;;;;;;;;;;5019231;28;20591;-66
2022/01/31 11:30:24;;;;;;;9.27;3.05;;;;;;;;;;5020574;28;20057;-66
2022/01/31 11:32:52;;;;;;;10.02;3.58;;;;;;;;;;5020896;28;20083;-68
2022/01/31 11:35:18;;;;;;;11.23;3.28;;;;;;;;;;5020853;28;20032;-69
2022/01/31 11:37:44;;;;;;;6.32;3.08;;;;;;;;;;5019986;28;20021;-69
2022/01/31 11:40:13;;;;;;;7.95;3.22;;;;;;;;;;5017252;28;20033;-70
2022/01/31 11:42:46;;;;;;;13.13;4.18;;;;;;;;;;5016239;28;20579;-68
2022/01/31 11:45:15;;;;;;;7.75;3.15;;;;;;;;;;5019643;28;20100;-67
2022/01/31 11:47:43;;;;;;;12.50;4.55;;;;;;;;;;5014713;28;20509;-69
2022/01/31 11:50:14;;;;;;;10.23;4.63;;;;;;;;;;5019632;28;20123;-67
2022/01/31 11:52:50;;;;;;;11.90;4.13;;;;;;;;;;5017386;28;20036;-69
2022/01/31 11:55:20;;;;;;;10.13;3.42;;;;;;;;;;5011811;28;20673;-68
2022/01/31 11:57:49;;;;;;;8.60;3.22;;;;;;;;;;5011894;28;20091;-69
2022/01/31 12:00:16;;;;;;;14.18;4.47;;;;;;;;;;5016007;28;20060;-66
2022/01/31 12:02:44;;;;;;;16.77;4.30;;;;;;;;;;5013382;28;20037;-66
2022/01/31 12:05:16;;;;;;;14.63;6.05;;;;;;;;;;5012825;28;20036;-68
2022/01/31 12:07:46;;;;;;;11.13;3.40;;;;;;;;;;5018854;28;20021;-67
2022/01/31 12:10:21;;;;;;;13.57;3.78;;;;;;;;;;5019144;28;20033;-66
2022/01/31 12:16:14;;;;;;;11.02;3.42;;;;;;;;;;5019111;28;20029;-66
2022/01/31 12:18:44;;;;;;;11.90;4.05;;;;;;;;;;5009028;28;20033;-69
2022/01/31 12:23:59;;;;;;;9.80;3.60;;;;;;;;;;5010598;28;20453;-67
2022/01/31 12:26:44;;;;;;;20.90;4.47;;;;;;;;;;5019053;28;20033;-67
2022/01/31 12:29:12;;;;;;;16.40;3.50;;;;;;;;;;5010184;28;20037;-67
2022/01/31 12:31:41;;;;;;;16.77;5.40;;;;;;;;;;5016724;28;20037;-67
2022/01/31 12:34:27;;;;;;;14.07;3.72;;;;;;;;;;5017919;28;20707;-67
2022/01/31 12:36:55;;;;;;;9.57;2.97;;;;;;;;;;5010489;28;20049;-67
2022/01/31 12:39:42;;;;;;;8.40;3.10;;;;;;;;;;5018199;28;20029;-67
2022/01/31 12:42:42;;;;;;;7.70;2.35;;;;;;;;;;5010529;28;20037;-69
2022/01/31 12:45:09;;;;;;;9.25;3.45;;;;;;;;;;5011592;28;20614;-69
2022/01/31 12:47:35;;;;;;;6.50;2.53;;;;;;;;;;5017546;28;20030;-68
2022/01/31 12:50:21;;;;;;;12.43;3.20;;;;;;;;;;5015840;28;20040;-67
2022/01/31 12:52:47;;;;;;;12.32;2.70;;;;;;;;;;5015946;28;20046;-67
2022/01/31 12:55:13;;;;;;;11.13;3.38;;;;;;;;;;5017392;28;20561;-69
2022/01/31 12:57:53;;;;;;;7.88;2.78;;;;;;;;;;5016985;28;20038;-68
2022/01/31 13:00:41;;;;;;;11.88;2.65;;;;;;;;;;5017765;28;20090;-67
2022/01/31 13:03:08;;;;;;;11.00;3.30;;;;;;;;;;5010306;28;20127;-67
2022/01/31 13:05:41;;;;;;;12.27;2.78;;;;;;;;;;5017742;28;20033;-67
2022/01/31 13:08:27;;;;;;;5.15;2.33;;;;;;;;;;5021667;28;20033;-67
2022/01/31 13:10:55;;;;;;;12.55;3.60;;;;;;;;;;5020600;28;20038;-67
2022/01/31 13:13:37;;;;;;;11.25;2.72;;;;;;;;;;5020086;28;20072;-71
2022/01/31 13:16:07;;;;;;;9.63;3.65;;;;;;;;;;5020602;28;20053;-66
2022/01/31 13:18:34;;;;;;;12.10;3.13;;;;;;;;;;5019725;28;20034;-69
2022/01/31 13:21:04;;;;;;;8.50;2.80;;;;;;;;;;5021470;28;20026;-69
2022/01/31 13:23:31;;;;;;;12.57;3.33;;;;;;;;;;5019344;28;20049;-69
2022/01/31 13:25:59;;;;;;;11.15;3.17;;;;;;;;;;5020286;28;20022;-69
2022/01/31 13:28:26;;;;;;;8.73;2.97;;;;;;;;;;5020973;28;20504;-67
2022/01/31 13:30:52;;;;;;;10.57;3.67;;;;;;;;;;5019594;28;20033;-67
2022/01/31 13:33:19;;;;;;;12.07;4.03;;;;;;;;;;5021334;28;20043;-67
2022/01/31 13:35:47;;;;;;;8.15;2.95;;;;;;;;;;5020410;28;20109;-66
2022/01/31 13:38:20;;;;;;;9.77;3.15;;;;;;;;;;5020588;28;20121;-67
2022/01/31 13:40:49;;;;;;;11.80;3.13;;;;;;;;;;5020282;28;20348;-67
2022/01/31 13:43:36;;;;;;;12.20;3.40;;;;;;;;;;5020939;28;20126;-69
2022/01/31 13:51:41;;;;;;;16.35;3.80;;;;;;;;;;5015569;28;20044;-68
2022/01/31 13:54:15;;;;;;;12.23;3.33;;;;;;;;;;5019587;28;20104;-67
2022/01/31 13:56:54;;;;;;;9.55;2.60;;;;;;;;;;5012247;28;20723;-67
2022/01/31 13:59:20;;;;;;;10.15;2.85;;;;;;;;;;5012975;28;20587;-69
2022/01/31 14:01:47;;;;;;;18.10;3.78;;;;;;;;;;5020830;28;20040;-69
2022/01/31 14:04:15;;;;;;;10.10;3.00;;;;;;;;;;5020436;28;20041;-69
2022/01/31 14:06:41;;;;;;;8.05;2.50;;;;;;;;;;5019238;28;20052;-70
2022/01/31 14:09:11;;;;;;;11.98;2.72;;;;;;;;;;5019140;28;20022;-70
2022/01/31 14:11:39;;;;;;;11.35;2.40;;;;;;;;;;5020331;28;20109;-69
2022/01/31 14:14:05;;;;;;;9.25;3.03;;;;;;;;;;5019558;28;20040;-67
2022/01/31 14:16:34;;;;;;;11.63;3.38;;;;;;;;;;5019011;28;20045;-67
2022/01/31 14:19:18;;;;;;;9.48;3.00;;;;;;;;;;5017298;28;20030;-67
2022/01/31 14:21:45;;;;;;;17.35;3.58;;;;;;;;;;5018948;28;20120;-67
2022/01/31 14:24:13;;;;;;;6.32;3.03;;;;;;;;;;5017380;28;20088;-67
2022/01/31 14:26:39;;;;;;;11.18;2.80;;;;;;;;;;5020209;28;20052;-67
2022/01/31 14:29:08;;;;;;;13.23;2.65;;;;;;;;;;5017617;28;20029;-66
2022/01/31 14:31:36;;;;;;;12.25;3.13;;;;;;;;;;5020172;28;20041;-67
2022/01/31 14:34:04;;;;;;;9.23;2.78;;;;;;;;;;5019920;28;20066;-68
2022/01/31 14:36:34;;;;;;;11.52;3.92;;;;;;;;;;5018439;28;20025;-68
2022/01/31 14:39:11;;;;;;;21.88;3.40;;;;;;;;;;5018663;28;20021;-67
2022/01/31 14:47:41;;;;;;;7.40;2.85;;;;;;;;;;5016424;28;20188;-68
2022/01/31 14:50:07;;;;;;;12.32;2.70;;;;;;;;;;5014057;28;20045;-68
2022/01/31 14:52:33;;;;;;;18.50;3.20;;;;;;;;;;5016595;28;20509;-67
2022/01/31 14:55:18;;;;;;;9.80;3.15;;;;;;;;;;5018463;28;20033;-68
2022/01/31 14:57:45;;;;;;;9.90;2.63;;;;;;;;;;5019157;28;20087;-68
2022/01/31 15:00:13;;;;;;;11.68;3.10;;;;;;;;;;5019332;28;20116;-67
2022/01/31 15:02:40;;;;;;;22.83;3.80;;;;;;;;;;5016701;28;20124;-69
2022/01/31 15:05:11;;;;;;;16.02;4.20;;;;;;;;;;5015509;28;20742;-68
2022/01/31 15:07:37;;;;;;;10.50;3.15;;;;;;;;;;5018943;28;20069;-67
2022/01/31 15:10:03;;;;;;;16.02;3.63;;;;;;;;;;5019262;28;20280;-67
2022/01/31 15:12:29;;;;;;;13.48;2.92;;;;;;;;;;5018473;28;20033;-67
2022/01/31 15:14:56;;;;;;;12.48;3.53;;;;;;;;;;5016962;28;20029;-67
2022/01/31 15:17:23;;;;;;;16.42;6.13;;;;;;;;;;5018297;28;20489;-67
2022/01/31 15:19:49;;;;;;;9.73;2.80;;;;;;;;;;5018446;28;20026;-68
2022/01/31 15:22:16;;;;;;;11.15;3.42;;;;;;;;;;5019216;28;20049;-67